createdAt,value
2022-08-29T00:01:36.453Z,21.22
2022-08-29T00:04:09.049Z,21.28
2022-08-29T00:06:41.022Z,21.34
2022-08-29T00:09:13.133Z,21.38
2022-08-29T00:11:46.382Z,21.41
2022-08-29T00:14:20.861Z,21.42
2022-08-29T00:16:56.108Z,21.43
2022-08-29T00:19:28.143Z,21.46
2022-08-29T00:21:59.993Z,21.45
2022-08-29T00:24:32.056Z,21.40
2022-08-29T00:27:04.138Z,21.36
2022-08-29T00:29:36.237Z,21.33
2022-08-29T00:32:08.596Z,21.32
2022-08-29T00:34:40.462Z,21.34
2022-08-29T00:37:12.427Z,21.33
2022-08-29T00:39:44.726Z,21.29
2022-08-29T00:42:16.595Z,21.23
2022-08-29T00:44:48.454Z,21.21
2022-08-29T00:47:24.214Z,21.21
2022-08-29T00:49:58.281Z,21.19
2022-08-29T00:52:35.808Z,21.14
2022-08-29T00:55:12.318Z,21.06
2022-08-29T00:57:49.487Z,21.01
2022-08-29T01:00:22.215Z,20.94
2022-08-29T01:02:55.096Z,20.85
2022-08-29T01:05:27.872Z,20.77
2022-08-29T01:08:00.642Z,20.70
2022-08-29T01:10:50.215Z,20.64
2022-08-29T01:13:23.607Z,20.57
2022-08-29T01:15:56.194Z,20.51
2022-08-29T01:18:30.810Z,20.45
2022-08-29T01:21:09.240Z,20.38
2022-08-29T01:23:48.752Z,20.31
2022-08-29T01:26:21.011Z,20.25
2022-08-29T01:28:55.681Z,20.23
2022-08-29T01:31:42.182Z,20.21
2022-08-29T01:34:22.853Z,20.18
2022-08-29T01:36:57.504Z,20.14
2022-08-29T01:39:31.969Z,20.10
2022-08-29T01:42:06.336Z,20.07
2022-08-29T01:44:38.897Z,20.06
2022-08-29T01:47:12.233Z,20.08
2022-08-29T01:49:46.804Z,20.09
2022-08-29T01:52:19.292Z,20.09
2022-08-29T01:54:51.571Z,20.09
2022-08-29T01:57:23.906Z,20.07
2022-08-29T01:59:56.885Z,20.04
2022-08-29T02:02:30.314Z,20.03
2022-08-29T02:05:02.168Z,20.02
2022-08-29T02:07:34.085Z,20.03
2022-08-29T02:10:08.395Z,20.02
2022-08-29T02:12:40.334Z,20.05
2022-08-29T02:15:14.771Z,20.07
2022-08-29T02:17:48.580Z,20.06
2022-08-29T02:20:20.637Z,20.05
2022-08-29T02:22:52.653Z,20.04
2022-08-29T02:25:42.986Z,20.03
2022-08-29T02:28:18.209Z,20.03
2022-08-29T02:30:56.331Z,20.02
2022-08-29T02:33:29.753Z,20.02
2022-08-29T02:36:04.395Z,20.02
2022-08-29T02:38:36.557Z,20.02
2022-08-29T02:41:13.626Z,20.03
2022-08-29T02:43:46.142Z,20.01
2022-08-29T02:46:20.727Z,20.05
2022-08-29T02:49:00.019Z,20.09
2022-08-29T02:51:34.664Z,20.11
2022-08-29T02:54:07.049Z,20.11
2022-08-29T02:56:39.366Z,20.13
2022-08-29T02:59:11.470Z,20.14
2022-08-29T03:01:43.327Z,20.14
2022-08-29T03:04:15.230Z,20.15
2022-08-29T03:06:47.147Z,20.17
2022-08-29T03:09:19.005Z,20.17
2022-08-29T03:11:52.664Z,20.19
2022-08-29T03:14:24.555Z,20.19
2022-08-29T03:16:56.463Z,20.18
2022-08-29T03:19:29.150Z,20.19
2022-08-29T03:22:01.871Z,20.22
2022-08-29T03:24:35.148Z,20.22
2022-08-29T03:27:07.716Z,20.23
2022-08-29T03:29:39.618Z,20.25
2022-08-29T03:32:11.859Z,20.25
2022-08-29T03:34:43.693Z,20.26
2022-08-29T03:37:15.625Z,20.27
2022-08-29T03:39:47.861Z,20.27
2022-08-29T03:42:19.878Z,20.28
2022-08-29T03:44:52.173Z,20.28
2022-08-29T03:47:24.261Z,20.31
2022-08-29T03:49:56.144Z,20.34
2022-08-29T03:52:28.005Z,20.35
2022-08-29T03:55:00.717Z,20.35
2022-08-29T03:57:33.818Z,20.37
2022-08-29T04:00:12.111Z,20.39
2022-08-29T04:02:44.680Z,20.41
2022-08-29T04:05:18.191Z,20.44
2022-08-29T04:07:53.831Z,20.50
2022-08-29T04:10:28.516Z,20.56
2022-08-29T04:13:01.551Z,20.58
2022-08-29T04:15:33.736Z,20.61
2022-08-29T04:18:08.683Z,20.63
2022-08-29T04:20:44.977Z,20.67
2022-08-29T04:23:17.653Z,20.69
2022-08-29T04:25:49.484Z,20.68
2022-08-29T04:28:21.400Z,20.65
2022-08-29T04:30:54.949Z,20.66
2022-08-29T04:33:27.996Z,20.65
2022-08-29T04:36:00.181Z,20.65
2022-08-29T04:38:32.120Z,20.65
2022-08-29T04:41:08.206Z,20.68
2022-08-29T04:43:40.261Z,20.67
2022-08-29T04:46:24.108Z,20.64
2022-08-29T04:49:00.568Z,20.63
2022-08-29T04:51:36.871Z,20.60
2022-08-29T04:54:09.432Z,20.59
2022-08-29T04:56:45.784Z,20.60
2022-08-29T04:59:20.509Z,20.61
2022-08-29T05:01:52.466Z,20.59
2022-08-29T05:04:24.441Z,20.57
2022-08-29T05:06:56.494Z,20.57
2022-08-29T05:09:28.653Z,20.62
2022-08-29T05:12:00.714Z,20.69
2022-08-29T05:14:32.623Z,20.70
2022-08-29T05:17:04.688Z,20.71
2022-08-29T05:19:42.879Z,20.70
2022-08-29T05:22:19.744Z,20.67
2022-08-29T05:24:52.796Z,20.70
2022-08-29T05:27:24.899Z,20.74
2022-08-29T05:29:58.525Z,20.74
2022-08-29T05:32:30.860Z,20.77
2022-08-29T05:35:04.123Z,20.84
2022-08-29T05:37:36.435Z,20.85
2022-08-29T05:40:10.347Z,20.86
2022-08-29T05:42:42.256Z,20.85
2022-08-29T05:45:14.985Z,20.81
2022-08-29T05:47:47.038Z,20.76
2022-08-29T05:50:19.323Z,20.74
2022-08-29T05:52:51.286Z,20.73
2022-08-29T05:55:23.850Z,20.75
2022-08-29T05:57:55.773Z,20.77
2022-08-29T06:00:28.080Z,20.79
2022-08-29T06:03:00.310Z,20.84
2022-08-29T06:05:32.371Z,20.87
2022-08-29T06:08:05.047Z,20.92
2022-08-29T06:10:40.508Z,20.99
2022-08-29T06:13:12.679Z,21.06
2022-08-29T06:15:46.759Z,21.10
2022-08-29T06:18:18.712Z,21.12
2022-08-29T06:20:59.421Z,21.20
2022-08-29T06:23:31.343Z,21.30
2022-08-29T06:26:03.907Z,21.41
2022-08-29T06:28:37.998Z,21.46
2022-08-29T06:31:12.673Z,21.52
2022-08-29T06:33:45.196Z,21.60
2022-08-29T06:36:17.425Z,21.66
2022-08-29T06:38:49.728Z,21.71
2022-08-29T06:41:21.893Z,21.72
2022-08-29T06:43:55.728Z,21.66
2022-08-29T06:46:30.615Z,21.61
2022-08-29T06:49:04.843Z,21.60
2022-08-29T06:51:38.878Z,21.55
2022-08-29T06:54:12.084Z,21.54
2022-08-29T06:56:45.779Z,21.54
2022-08-29T06:59:18.848Z,21.53
2022-08-29T07:01:50.990Z,21.54
2022-08-29T07:04:23.155Z,21.55
2022-08-29T07:06:58.830Z,21.59
2022-08-29T07:09:32.414Z,21.62
2022-08-29T07:12:06.025Z,21.67
2022-08-29T07:14:38.042Z,21.68
2022-08-29T07:17:10.711Z,21.74
2022-08-29T07:19:54.467Z,21.70
2022-08-29T07:22:27.206Z,21.77
2022-08-29T07:24:59.592Z,21.90
2022-08-29T07:27:31.517Z,22.02
2022-08-29T07:30:03.644Z,22.16
2022-08-29T07:32:35.547Z,22.27
2022-08-29T07:35:11.569Z,22.36
2022-08-29T07:37:50.243Z,22.33
2022-08-29T07:40:22.911Z,22.20
2022-08-29T07:42:55.599Z,22.05
2022-08-29T07:45:27.451Z,21.91
2022-08-29T07:47:59.780Z,21.89
2022-08-29T07:50:31.683Z,21.90
2022-08-29T07:53:03.567Z,21.86
2022-08-29T07:55:35.608Z,21.85
2022-08-29T07:58:07.699Z,21.88
2022-08-29T08:00:39.736Z,22.07
2022-08-29T08:03:14.287Z,22.75
2022-08-29T08:05:46.344Z,23.22
2022-08-29T08:08:18.802Z,23.40
2022-08-29T08:10:52.301Z,23.45
2022-08-29T08:13:24.381Z,23.39
2022-08-29T08:15:56.677Z,23.23
2022-08-29T08:18:29.722Z,23.06
2022-08-29T08:21:01.803Z,22.96
2022-08-29T08:23:33.855Z,22.84
2022-08-29T08:26:06.360Z,22.71
2022-08-29T08:28:39.120Z,22.61
2022-08-29T08:31:14.194Z,22.53
2022-08-29T08:33:47.920Z,22.51
2022-08-29T08:36:23.237Z,22.57
2022-08-29T08:38:56.819Z,22.68
2022-08-29T08:41:39.266Z,22.66
2022-08-29T08:44:35.324Z,22.55
2022-08-29T08:47:10.465Z,22.29
2022-08-29T08:49:50.165Z,22.13
2022-08-29T08:52:29.122Z,21.99
2022-08-29T08:55:06.051Z,21.88
2022-08-29T08:57:46.379Z,21.88
2022-08-29T09:00:18.470Z,21.89
2022-08-29T09:03:03.823Z,21.89
2022-08-29T09:05:49.840Z,21.91
2022-08-29T09:08:31.254Z,22.27
2022-08-29T09:11:09.754Z,22.52
2022-08-29T09:13:54.323Z,22.77
2022-08-29T09:16:31.659Z,23.76
2022-08-29T09:19:08.058Z,24.92
2022-08-29T09:21:48.427Z,25.64
2022-08-29T09:24:28.897Z,25.81
2022-08-29T09:27:01.000Z,25.96
2022-08-29T09:29:33.962Z,26.09
2022-08-29T09:32:16.582Z,25.93
2022-08-29T09:35:07.929Z,25.77
2022-08-29T09:37:41.271Z,26.12
2022-08-29T09:40:19.298Z,26.91
2022-08-29T09:43:04.183Z,27.36
2022-08-29T09:45:36.073Z,27.50
2022-08-29T09:48:19.567Z,27.77
2022-08-29T09:50:51.610Z,28.18
2022-08-29T09:53:26.931Z,28.43
2022-08-29T09:56:08.471Z,28.82
2022-08-29T09:58:43.036Z,29.26
2022-08-29T10:01:26.211Z,29.66
2022-08-29T10:04:02.642Z,30.10
2022-08-29T10:06:44.246Z,30.58
2022-08-29T10:09:28.839Z,30.99
2022-08-29T10:12:07.192Z,31.38
2022-08-29T10:14:49.734Z,31.37
2022-08-29T10:17:47.343Z,31.44
2022-08-29T10:20:21.014Z,31.47
2022-08-29T10:23:04.384Z,31.03
2022-08-29T10:25:40.458Z,30.50
2022-08-29T10:28:21.586Z,30.30
2022-08-29T10:30:57.984Z,30.02
2022-08-29T10:33:34.680Z,29.81
2022-08-29T10:36:14.091Z,29.78
2022-08-29T10:38:51.200Z,30.31
2022-08-29T10:41:33.474Z,30.67
2022-08-29T10:44:20.439Z,30.10
2022-08-29T10:47:04.554Z,29.92
2022-08-29T10:49:46.911Z,29.51
2022-08-29T10:52:27.713Z,29.32
2022-08-29T10:55:09.861Z,29.32
2022-08-29T10:58:03.501Z,29.06
2022-08-29T11:00:43.433Z,28.76
2022-08-29T11:03:30.078Z,28.78
2022-08-29T11:06:06.082Z,28.89
2022-08-29T11:08:45.723Z,29.04
2022-08-29T11:11:22.539Z,29.20
2022-08-29T11:14:03.527Z,29.17
2022-08-29T11:16:43.436Z,28.88
2022-08-29T11:19:22.630Z,28.65
2022-08-29T11:22:00.107Z,28.32
2022-08-29T11:24:38.004Z,28.01
2022-08-29T11:27:20.389Z,28.03
2022-08-29T11:30:06.393Z,28.22
2022-08-29T11:32:52.272Z,28.28
2022-08-29T11:35:32.512Z,28.32
2022-08-29T11:38:18.738Z,28.37
2022-08-29T11:44:05.567Z,28.35
2022-08-29T11:46:44.221Z,28.24
2022-08-29T11:49:33.986Z,28.29
2022-08-29T11:52:22.497Z,28.34
2022-08-29T11:55:18.808Z,28.27
2022-08-29T11:58:04.184Z,28.18
2022-08-29T12:00:45.409Z,28.09
2022-08-29T12:03:56.917Z,27.95
2022-08-29T12:06:37.157Z,27.78
2022-08-29T12:09:27.539Z,27.67
2022-08-29T12:12:39.867Z,27.69
2022-08-29T12:15:41.893Z,27.47
2022-08-29T12:18:36.669Z,27.24
2022-08-29T12:21:47.232Z,27.26
2022-08-29T12:24:55.183Z,27.06
2022-08-29T12:28:01.075Z,26.82
2022-08-29T12:30:38.613Z,26.93
2022-08-29T12:33:25.354Z,26.80
2022-08-29T12:36:19.265Z,26.76
2022-08-29T12:39:04.471Z,26.70
2022-08-29T12:41:49.784Z,26.68
2022-08-29T12:44:28.027Z,26.57
2022-08-29T12:47:08.657Z,26.39
2022-08-29T12:49:50.950Z,26.30
2022-08-29T12:52:27.982Z,26.35
2022-08-29T12:55:19.335Z,26.48
2022-08-29T12:57:52.405Z,26.65
2022-08-29T13:00:28.275Z,26.75
2022-08-29T13:03:03.611Z,26.73
2022-08-29T13:05:38.692Z,26.72
2022-08-29T13:08:13.591Z,26.77
2022-08-29T13:10:58.811Z,26.84
2022-08-29T13:13:31.263Z,26.77
2022-08-29T13:16:07.024Z,26.70
2022-08-29T13:18:53.947Z,26.69
2022-08-29T13:21:33.200Z,26.56
2022-08-29T13:24:11.802Z,26.32
2022-08-29T13:27:04.241Z,26.22
2022-08-29T13:29:41.932Z,26.17
2022-08-29T13:32:26.892Z,26.18
2022-08-29T13:35:19.127Z,26.15
2022-08-29T13:38:18.541Z,26.09
2022-08-29T13:40:52.124Z,26.06
2022-08-29T13:43:35.141Z,26.06
2022-08-29T13:46:18.152Z,25.99
2022-08-29T13:48:58.926Z,25.97
2022-08-29T13:51:30.918Z,26.01
2022-08-29T13:54:03.628Z,26.06
2022-08-29T13:56:38.761Z,26.07
2022-08-29T13:59:11.942Z,26.07
2022-08-29T14:04:39.851Z,26.09
2022-08-29T14:07:13.062Z,26.01
2022-08-29T14:09:46.680Z,25.93
2022-08-29T14:12:19.386Z,25.85
2022-08-29T14:14:53.793Z,25.78
2022-08-29T14:17:26.609Z,25.67
2022-08-29T14:19:58.659Z,25.57
2022-08-29T14:22:31.406Z,25.51
2022-08-29T14:25:03.434Z,25.48
2022-08-29T14:27:35.627Z,25.46
2022-08-29T14:30:10.790Z,25.41
2022-08-29T14:32:42.953Z,25.31
2022-08-29T14:35:20.822Z,25.23
2022-08-29T14:38:00.116Z,25.15
2022-08-29T14:40:33.946Z,24.99
2022-08-29T14:43:06.389Z,24.92
2022-08-29T14:45:38.695Z,24.83
2022-08-29T14:48:10.956Z,24.77
2022-08-29T14:50:42.862Z,24.67
2022-08-29T14:53:15.037Z,24.55
2022-08-29T14:55:47.041Z,24.49
2022-08-29T14:58:19.187Z,24.41
2022-08-29T15:00:51.589Z,24.35
2022-08-29T15:03:26.728Z,24.35
2022-08-29T15:05:59.691Z,24.35
2022-08-29T15:08:31.619Z,24.33
2022-08-29T15:11:04.197Z,24.29
2022-08-29T15:13:36.181Z,24.24
2022-08-29T15:16:09.087Z,24.22
2022-08-29T15:19:26.474Z,24.21
2022-08-29T15:21:33.918Z,24.15
2022-08-29T15:24:07.143Z,24.07
2022-08-29T15:26:39.251Z,24.05
2022-08-29T15:29:11.674Z,24.05
2022-08-29T15:31:43.818Z,24.06
2022-08-29T15:34:15.933Z,24.02
2022-08-29T15:36:47.839Z,23.97
2022-08-29T15:39:22.959Z,23.89
2022-08-29T15:41:55.241Z,23.85
2022-08-29T15:44:28.321Z,23.81
2022-08-29T15:47:00.465Z,23.75
2022-08-29T15:49:34.082Z,23.66
2022-08-29T15:52:06.262Z,23.60
2022-08-29T15:54:38.255Z,23.55
2022-08-29T15:57:11.177Z,23.49
2022-08-29T15:59:57.567Z,23.44
2022-08-29T16:02:29.324Z,23.39
2022-08-29T16:05:02.139Z,23.32
2022-08-29T16:07:34.198Z,23.29
2022-08-29T16:10:11.028Z,23.28
2022-08-29T16:12:43.910Z,23.25
2022-08-29T16:15:16.476Z,23.23
2022-08-29T16:17:48.976Z,23.18
2022-08-29T16:20:21.001Z,23.15
2022-08-29T16:22:53.249Z,23.14
2022-08-29T16:25:26.933Z,23.10
2022-08-29T16:28:06.209Z,23.08
2022-08-29T16:30:46.214Z,23.04
2022-08-29T16:33:19.617Z,23.04
2022-08-29T16:35:51.836Z,23.01
2022-08-29T16:38:23.857Z,22.97
2022-08-29T16:41:06.152Z,22.95
2022-08-29T16:43:39.473Z,22.92
2022-08-29T16:46:14.870Z,22.88
2022-08-29T16:48:47.238Z,22.85
2022-08-29T16:51:20.750Z,22.83
2022-08-29T16:53:52.731Z,22.80
2022-08-29T16:56:25.817Z,22.76
2022-08-29T16:59:01.650Z,22.73
2022-08-29T17:01:36.841Z,22.69
2022-08-29T17:04:12.048Z,22.62
2022-08-29T17:06:46.589Z,22.56
2022-08-29T17:09:19.224Z,22.50
2022-08-29T17:11:51.151Z,22.44
2022-08-29T17:14:24.310Z,22.40
2022-08-29T17:16:56.942Z,22.34
2022-08-29T17:19:29.051Z,22.27
2022-08-29T17:22:05.235Z,22.19
2022-08-29T17:24:37.157Z,22.13
2022-08-29T17:27:10.430Z,22.09
2022-08-29T17:29:43.142Z,22.05
2022-08-29T17:32:15.648Z,21.99
2022-08-29T17:34:48.653Z,21.94
2022-08-29T17:37:20.529Z,21.88
2022-08-29T17:39:52.579Z,21.82
2022-08-29T17:42:25.482Z,21.75
2022-08-29T17:44:58.554Z,21.67
2022-08-29T17:47:30.760Z,21.61
2022-08-29T17:50:02.977Z,21.54
2022-08-29T17:52:34.962Z,21.47
2022-08-29T17:55:08.474Z,21.39
2022-08-29T17:57:40.453Z,21.32
2022-08-29T18:00:16.364Z,21.28
2022-08-29T18:02:48.719Z,21.23
2022-08-29T18:05:21.328Z,21.19
2022-08-29T18:07:53.140Z,21.15
2022-08-29T18:10:25.558Z,21.09
2022-08-29T18:12:57.616Z,21.07
2022-08-29T18:15:29.976Z,21.04
2022-08-29T18:18:09.709Z,20.99
2022-08-29T18:20:41.738Z,20.94
2022-08-29T18:23:13.971Z,20.90
2022-08-29T18:25:46.192Z,20.84
2022-08-29T18:28:19.063Z,20.80
2022-08-29T18:30:51.545Z,20.76
2022-08-29T18:33:28.466Z,20.72
2022-08-29T18:36:08.384Z,20.66
2022-08-29T18:38:40.331Z,20.60
2022-08-29T18:41:12.730Z,20.52
2022-08-29T18:43:44.943Z,20.43
2022-08-29T18:46:16.989Z,20.38
2022-08-29T18:48:48.955Z,20.34
2022-08-29T18:51:21.881Z,20.30
2022-08-29T18:53:54.062Z,20.29
2022-08-29T18:56:26.376Z,20.25
2022-08-29T18:58:59.317Z,20.22
2022-08-29T19:01:32.312Z,20.19
2022-08-29T19:04:05.108Z,20.14
2022-08-29T19:06:37.106Z,20.09
2022-08-29T19:09:09.234Z,20.04
2022-08-29T19:11:41.123Z,19.98
2022-08-29T19:14:13.637Z,19.93
2022-08-29T19:16:45.681Z,19.88
2022-08-29T19:19:17.706Z,19.84
2022-08-29T19:21:52.476Z,19.79
2022-08-29T19:24:24.586Z,19.73
2022-08-29T19:26:57.028Z,19.67
2022-08-29T19:29:29.102Z,19.61
2022-08-29T19:32:01.165Z,19.57
2022-08-29T19:34:33.109Z,19.53
2022-08-29T19:37:06.548Z,19.48
2022-08-29T19:39:42.056Z,19.42
2022-08-29T19:42:16.237Z,19.37
2022-08-29T19:44:49.162Z,19.31
2022-08-29T19:47:21.145Z,19.27
2022-08-29T19:49:53.080Z,19.22
2022-08-29T19:52:24.947Z,19.17
2022-08-29T19:55:00.179Z,19.15
2022-08-29T19:57:32.325Z,19.10
2022-08-29T20:00:13.505Z,19.07
2022-08-29T20:02:46.143Z,19.01
2022-08-29T20:05:19.104Z,18.95
2022-08-29T20:07:54.240Z,18.89
2022-08-29T20:10:29.260Z,18.84
2022-08-29T20:13:01.792Z,18.77
2022-08-29T20:15:34.196Z,18.72
2022-08-29T20:18:06.634Z,18.67
2022-08-29T20:20:41.864Z,18.63
2022-08-29T20:23:14.764Z,18.60
2022-08-29T20:25:47.280Z,18.56
2022-08-29T20:28:19.381Z,18.52
2022-08-29T20:30:51.518Z,18.48
2022-08-29T20:33:23.364Z,18.46
2022-08-29T20:36:13.422Z,18.42
2022-08-29T20:38:45.519Z,18.38
2022-08-29T20:41:21.249Z,18.36
2022-08-29T20:43:53.434Z,18.36
2022-08-29T20:46:25.592Z,18.35
2022-08-29T20:48:58.081Z,18.32
2022-08-29T20:51:29.966Z,18.31
2022-08-29T20:54:01.829Z,18.29
2022-08-29T20:56:34.151Z,18.24
2022-08-29T20:59:07.224Z,18.18
2022-08-29T21:01:40.322Z,18.13
2022-08-29T21:04:30.972Z,18.09
2022-08-29T21:07:05.636Z,18.07
2022-08-29T21:09:40.347Z,18.06
2022-08-29T21:12:13.617Z,18.07
2022-08-29T21:14:46.367Z,18.03
2022-08-29T21:17:19.586Z,18.02
2022-08-29T21:19:51.492Z,18.01
2022-08-29T21:22:25.209Z,17.99
2022-08-29T21:24:58.350Z,17.97
2022-08-29T21:27:30.743Z,17.96
2022-08-29T21:30:02.714Z,17.92
2022-08-29T21:32:34.644Z,17.90
2022-08-29T21:35:07.343Z,17.89
2022-08-29T21:37:39.228Z,17.89
2022-08-29T21:40:14.416Z,17.90
2022-08-29T21:42:46.465Z,17.86
2022-08-29T21:45:18.527Z,17.84
2022-08-29T21:47:52.327Z,17.82
2022-08-29T21:50:26.068Z,17.79
2022-08-29T21:52:57.986Z,17.77
2022-08-29T21:55:30.476Z,17.74
2022-08-29T21:58:02.428Z,17.70
2022-08-29T22:00:36.426Z,17.69
2022-08-29T22:03:12.363Z,17.69
2022-08-29T22:05:44.858Z,17.67
2022-08-29T22:08:17.232Z,17.63
2022-08-29T22:10:49.994Z,17.62
2022-08-29T22:13:22.199Z,17.60
2022-08-29T22:16:11.906Z,17.58
2022-08-29T22:18:43.919Z,17.53
2022-08-29T22:21:16.508Z,17.49
2022-08-29T22:23:48.358Z,17.46
2022-08-29T22:26:21.060Z,17.42
2022-08-29T22:28:53.001Z,17.40
2022-08-29T22:31:26.756Z,17.35
2022-08-29T22:33:58.715Z,17.30
2022-08-29T22:36:30.763Z,17.26
2022-08-29T22:39:03.873Z,17.20
2022-08-29T22:41:35.869Z,17.18
2022-08-29T22:44:52.637Z,17.15
2022-08-29T22:47:00.538Z,17.12
2022-08-29T22:49:34.143Z,17.10
2022-08-29T22:52:06.670Z,17.07
2022-08-29T22:54:43.494Z,17.08
2022-08-29T22:57:19.130Z,17.03
2022-08-29T22:59:51.464Z,17.03
2022-08-29T23:02:23.637Z,17.02
2022-08-29T23:04:55.861Z,17.02
2022-08-29T23:07:27.818Z,17.00
2022-08-29T23:10:00.210Z,16.99
2022-08-29T23:12:32.304Z,16.96
2022-08-29T23:15:05.087Z,16.90
2022-08-29T23:17:37.154Z,16.87
2022-08-29T23:20:11.991Z,16.83
2022-08-29T23:22:44.371Z,16.82
2022-08-29T23:25:16.315Z,16.80
2022-08-29T23:27:48.694Z,16.78
2022-08-29T23:30:20.563Z,16.77
2022-08-29T23:32:52.822Z,16.75
2022-08-29T23:35:25.118Z,16.72
2022-08-29T23:37:58.673Z,16.70
2022-08-29T23:40:30.555Z,16.67
2022-08-29T23:43:02.828Z,16.65
2022-08-29T23:45:35.032Z,16.64
2022-08-29T23:48:07.672Z,16.60
2022-08-29T23:50:40.085Z,16.58
2022-08-29T23:53:12.236Z,16.55
2022-08-29T23:55:44.349Z,16.52
2022-08-29T23:58:16.497Z,16.47
